createdAt,value
2023-02-15T00:01:14.400Z,99.90
2023-02-15T00:03:41.185Z,99.90
2023-02-15T00:06:07.910Z,99.90
2023-02-15T00:08:34.678Z,99.90
2023-02-15T00:11:02.191Z,99.90
2023-02-15T00:13:28.994Z,99.90
2023-02-15T00:15:55.717Z,99.90
2023-02-15T00:18:22.471Z,99.90
2023-02-15T00:20:49.214Z,99.90
2023-02-15T00:23:16.030Z,99.90
2023-02-15T00:25:42.824Z,99.90
2023-02-15T00:28:12.201Z,99.90
2023-02-15T00:30:39.114Z,99.90
2023-02-15T00:33:05.966Z,99.90
2023-02-15T00:35:32.732Z,99.90
2023-02-15T00:37:59.362Z,99.90
2023-02-15T00:40:28.573Z,99.90
2023-02-15T00:42:55.376Z,99.90
2023-02-15T00:45:22.463Z,99.90
2023-02-15T00:47:49.314Z,99.90
2023-02-15T00:50:18.939Z,99.90
2023-02-15T00:52:45.713Z,99.90
2023-02-15T00:55:12.487Z,99.90
2023-02-15T00:57:39.353Z,99.90
2023-02-15T01:00:06.544Z,99.90
2023-02-15T01:02:33.321Z,99.90
2023-02-15T01:05:00.032Z,99.90
2023-02-15T01:07:27.013Z,99.90
2023-02-15T01:09:53.819Z,99.90
2023-02-15T01:12:20.578Z,99.90
2023-02-15T01:14:47.360Z,99.90
2023-02-15T01:17:14.062Z,99.90
2023-02-15T01:19:40.774Z,99.90
2023-02-15T01:22:07.662Z,99.90
2023-02-15T01:24:37.273Z,99.90
2023-02-15T01:27:03.978Z,99.90
2023-02-15T01:29:33.567Z,99.90
2023-02-15T01:32:00.463Z,99.90
2023-02-15T01:34:27.200Z,99.90
2023-02-15T01:36:53.882Z,99.90
2023-02-15T01:39:20.564Z,99.90
2023-02-15T01:41:47.261Z,99.90
2023-02-15T01:44:14.041Z,99.90
2023-02-15T01:46:40.793Z,99.90
2023-02-15T01:49:09.180Z,99.90
2023-02-15T01:51:35.787Z,99.90
2023-02-15T01:54:02.560Z,99.90
2023-02-15T01:56:29.257Z,99.90
2023-02-15T01:58:56.447Z,99.90
2023-02-15T02:01:23.196Z,99.90
2023-02-15T02:03:49.932Z,99.90
2023-02-15T02:06:16.773Z,99.90
2023-02-15T02:08:43.507Z,99.90
2023-02-15T02:11:10.309Z,99.90
2023-02-15T02:13:37.031Z,99.90
2023-02-15T02:16:04.187Z,99.90
2023-02-15T02:18:31.121Z,99.90
2023-02-15T02:20:57.817Z,99.90
2023-02-15T02:23:24.549Z,99.90
2023-02-15T02:25:51.253Z,99.90
2023-02-15T02:28:18.051Z,99.90
2023-02-15T02:30:45.033Z,99.90
2023-02-15T02:33:11.918Z,99.90
2023-02-15T02:35:39.876Z,99.90
2023-02-15T02:38:06.604Z,99.90
2023-02-15T02:40:33.428Z,99.90
2023-02-15T02:43:00.150Z,99.90
2023-02-15T02:45:26.876Z,99.90
2023-02-15T02:47:53.569Z,99.90
2023-02-15T02:50:20.273Z,99.90
2023-02-15T02:52:46.962Z,99.90
2023-02-15T02:55:13.727Z,99.90
2023-02-15T02:57:40.346Z,99.90
2023-02-15T03:00:09.667Z,99.90
2023-02-15T03:02:36.447Z,99.90
2023-02-15T03:05:04.881Z,99.90
2023-02-15T03:07:31.683Z,99.90
2023-02-15T03:09:58.444Z,99.90
2023-02-15T03:12:25.126Z,99.90
2023-02-15T03:14:51.838Z,99.90
2023-02-15T03:17:18.536Z,99.90
2023-02-15T03:19:45.349Z,99.90
2023-02-15T03:22:12.094Z,99.90
2023-02-15T03:24:38.841Z,99.90
2023-02-15T03:27:05.713Z,99.90
2023-02-15T03:29:34.222Z,99.90
2023-02-15T03:32:01.075Z,99.90
2023-02-15T03:34:27.923Z,99.90
2023-02-15T03:36:54.689Z,99.90
2023-02-15T03:39:21.350Z,99.90
2023-02-15T03:41:48.111Z,99.90
2023-02-15T03:44:15.040Z,99.90
2023-02-15T03:46:41.801Z,99.90
2023-02-15T03:49:08.510Z,99.90
2023-02-15T03:51:35.284Z,99.90
2023-02-15T03:54:01.978Z,99.90
2023-02-15T03:56:28.717Z,99.90
2023-02-15T03:59:14.552Z,99.90
2023-02-15T04:01:59.662Z,99.90
2023-02-15T04:04:26.426Z,99.90
2023-02-15T04:06:53.269Z,99.90
2023-02-15T04:09:38.884Z,99.90
2023-02-15T04:12:05.604Z,99.90
2023-02-15T04:14:51.183Z,99.90
2023-02-15T04:17:17.912Z,99.90
2023-02-15T04:20:03.793Z,99.90
2023-02-15T04:22:49.219Z,99.90
2023-02-15T04:25:15.992Z,99.90
2023-02-15T04:27:42.728Z,99.90
2023-02-15T04:30:09.522Z,99.90
2023-02-15T04:32:36.260Z,99.90
2023-02-15T04:35:02.994Z,99.90
2023-02-15T04:37:29.733Z,99.90
2023-02-15T04:39:56.484Z,99.90
2023-02-15T04:42:23.208Z,99.90
2023-02-15T04:44:49.955Z,99.90
2023-02-15T04:47:16.747Z,99.90
2023-02-15T04:49:43.574Z,99.90
2023-02-15T04:52:10.262Z,99.90
2023-02-15T04:54:37.011Z,99.90
2023-02-15T04:57:03.810Z,99.90
2023-02-15T04:59:30.565Z,99.90
2023-02-15T05:01:57.333Z,99.90
2023-02-15T05:04:27.126Z,99.90
2023-02-15T05:06:54.112Z,99.90
2023-02-15T05:09:20.907Z,99.90
2023-02-15T05:11:47.601Z,99.90
2023-02-15T05:14:14.404Z,99.90
2023-02-15T05:16:41.180Z,99.90
2023-02-15T05:19:08.081Z,99.90
2023-02-15T05:21:37.614Z,99.90
2023-02-15T05:24:24.347Z,99.90
2023-02-15T05:27:09.676Z,99.90
2023-02-15T05:29:36.403Z,99.90
2023-02-15T05:32:03.729Z,99.90
2023-02-15T05:34:30.499Z,99.90
2023-02-15T05:36:57.237Z,99.90
2023-02-15T05:39:24.002Z,99.90
2023-02-15T05:41:50.701Z,99.90
2023-02-15T05:44:17.454Z,99.90
2023-02-15T05:46:44.185Z,99.90
2023-02-15T05:49:10.963Z,99.90
2023-02-15T05:51:37.703Z,99.90
2023-02-15T05:54:04.379Z,99.90
2023-02-15T05:56:31.218Z,99.90
2023-02-15T05:58:57.901Z,99.90
2023-02-15T06:01:24.649Z,99.90
2023-02-15T06:03:51.464Z,99.90
2023-02-15T06:06:18.252Z,99.90
2023-02-15T06:08:44.931Z,99.90
2023-02-15T06:11:12.021Z,99.90
2023-02-15T06:13:39.264Z,99.90
2023-02-15T06:16:06.374Z,99.90
2023-02-15T06:18:33.176Z,99.90
2023-02-15T06:20:59.897Z,99.90
2023-02-15T06:23:26.623Z,99.90
2023-02-15T06:25:53.308Z,99.90
2023-02-15T06:28:20.038Z,99.90
2023-02-15T06:30:46.751Z,99.90
2023-02-15T06:33:13.490Z,99.90
2023-02-15T06:35:40.221Z,99.90
2023-02-15T06:38:06.961Z,99.90
2023-02-15T06:40:33.670Z,99.90
2023-02-15T06:43:00.413Z,99.90
2023-02-15T06:45:27.176Z,99.90
2023-02-15T06:47:53.922Z,99.90
2023-02-15T06:50:20.552Z,99.90
2023-02-15T06:52:47.314Z,99.90
2023-02-15T06:55:14.003Z,99.90
2023-02-15T06:57:40.713Z,99.90
2023-02-15T07:00:07.906Z,99.90
2023-02-15T07:02:34.654Z,99.90
2023-02-15T07:05:01.368Z,99.90
2023-02-15T07:07:28.324Z,99.90
2023-02-15T07:09:55.016Z,99.90
2023-02-15T07:12:40.582Z,99.90
2023-02-15T07:15:08.717Z,99.90
2023-02-15T07:17:36.535Z,99.90
2023-02-15T07:20:03.386Z,99.90
2023-02-15T07:22:30.179Z,99.90
2023-02-15T07:24:57.038Z,99.90
2023-02-15T07:27:23.857Z,99.90
2023-02-15T07:29:50.731Z,99.90
2023-02-15T07:32:17.421Z,99.90
2023-02-15T07:34:44.153Z,99.90
2023-02-15T07:37:10.957Z,99.90
2023-02-15T07:39:37.717Z,99.90
2023-02-15T07:42:04.536Z,99.90
2023-02-15T07:44:31.254Z,99.90
2023-02-15T07:46:57.987Z,99.90
2023-02-15T07:49:24.772Z,99.90
2023-02-15T07:51:51.634Z,99.90
2023-02-15T07:54:18.427Z,99.90
2023-02-15T07:56:45.112Z,99.90
2023-02-15T07:59:11.904Z,99.90
2023-02-15T08:01:38.740Z,99.90
2023-02-15T08:04:05.538Z,99.90
2023-02-15T08:06:32.325Z,99.90
2023-02-15T08:08:59.120Z,99.90
2023-02-15T08:11:37.623Z,99.90
2023-02-15T08:14:05.062Z,99.90
2023-02-15T08:16:31.836Z,99.90
2023-02-15T08:18:58.616Z,99.90
2023-02-15T08:21:25.384Z,99.90
2023-02-15T08:23:52.120Z,99.90
2023-02-15T08:26:18.822Z,99.90
2023-02-15T08:28:45.696Z,99.90
2023-02-15T08:31:12.483Z,99.90
2023-02-15T08:33:39.324Z,99.90
2023-02-15T08:36:06.090Z,99.90
2023-02-15T08:38:33.630Z,99.90
2023-02-15T08:41:00.824Z,99.90
2023-02-15T08:43:27.757Z,99.90
2023-02-15T08:45:54.623Z,99.90
2023-02-15T08:48:21.486Z,99.90
2023-02-15T08:50:48.139Z,99.90
2023-02-15T08:53:16.843Z,99.90
2023-02-15T08:55:43.713Z,99.90
2023-02-15T08:58:10.408Z,99.90
2023-02-15T09:00:37.369Z,99.90
2023-02-15T09:03:04.358Z,99.90
2023-02-15T09:05:31.207Z,99.90
2023-02-15T09:07:57.868Z,99.90
2023-02-15T09:10:24.545Z,99.90
2023-02-15T09:12:52.180Z,99.90
2023-02-15T09:15:18.868Z,99.90
2023-02-15T09:17:45.674Z,99.90
2023-02-15T09:20:12.480Z,99.90
2023-02-15T09:22:39.172Z,99.90
2023-02-15T09:25:06.000Z,99.90
2023-02-15T09:27:32.725Z,99.90
2023-02-15T09:29:59.533Z,99.90
2023-02-15T09:32:26.260Z,99.90
2023-02-15T09:34:52.992Z,99.90
2023-02-15T09:37:19.643Z,99.90
2023-02-15T09:39:48.298Z,99.90
2023-02-15T09:42:15.849Z,99.90
2023-02-15T09:44:42.619Z,99.90
2023-02-15T09:47:09.609Z,99.60
2023-02-15T09:49:36.251Z,98.40
2023-02-15T09:52:03.039Z,98.00
2023-02-15T09:54:29.793Z,97.60
2023-02-15T09:56:56.536Z,97.50
2023-02-15T09:59:23.218Z,97.20
2023-02-15T10:01:49.949Z,96.30
2023-02-15T10:04:16.752Z,96.80
2023-02-15T10:06:45.360Z,96.30
2023-02-15T10:09:12.110Z,95.80
2023-02-15T10:11:41.877Z,95.30
2023-02-15T10:14:08.564Z,95.40
2023-02-15T10:16:35.353Z,95.10
2023-02-15T10:19:02.605Z,95.20
2023-02-15T10:21:29.579Z,94.30
2023-02-15T10:23:56.438Z,93.90
2023-02-15T10:26:24.000Z,93.90
2023-02-15T10:28:50.802Z,93.30
2023-02-15T10:31:17.668Z,93.10
2023-02-15T10:33:44.423Z,93.50
2023-02-15T10:36:11.257Z,93.30
2023-02-15T10:38:37.967Z,93.70
2023-02-15T10:41:04.828Z,93.90
2023-02-15T10:43:31.705Z,93.50
2023-02-15T10:45:58.531Z,93.30
2023-02-15T10:48:25.214Z,93.40
2023-02-15T10:50:51.920Z,93.30
2023-02-15T10:53:18.640Z,93.50
2023-02-15T10:55:45.354Z,93.70
2023-02-15T10:58:12.056Z,93.50
2023-02-15T11:00:40.311Z,93.80
2023-02-15T11:03:07.114Z,93.80
2023-02-15T11:05:33.888Z,93.80
2023-02-15T11:08:00.758Z,94.00
2023-02-15T11:10:27.518Z,93.80
2023-02-15T11:12:54.300Z,93.40
2023-02-15T11:15:21.148Z,93.50
2023-02-15T11:17:47.844Z,92.70
2023-02-15T11:20:14.481Z,91.80
2023-02-15T11:22:41.209Z,91.30
2023-02-15T11:25:08.037Z,91.60
2023-02-15T11:27:34.824Z,91.30
2023-02-15T11:30:02.047Z,90.50
2023-02-15T11:32:28.742Z,90.90
2023-02-15T11:34:55.497Z,90.50
2023-02-15T11:37:22.331Z,90.20
2023-02-15T11:39:52.669Z,90.30
2023-02-15T11:42:19.502Z,90.20
2023-02-15T11:44:46.318Z,90.30
2023-02-15T11:47:12.948Z,89.60
2023-02-15T11:49:39.586Z,89.40
2023-02-15T11:52:06.342Z,90.00
2023-02-15T11:54:33.450Z,88.40
2023-02-15T11:57:00.189Z,89.00
2023-02-15T11:59:28.855Z,86.10
2023-02-15T12:01:55.609Z,87.30
2023-02-15T12:04:22.665Z,85.70
2023-02-15T12:06:49.658Z,84.10
2023-02-15T12:09:16.288Z,84.80
2023-02-15T12:11:43.008Z,84.40
2023-02-15T12:14:09.772Z,85.50
2023-02-15T12:16:38.990Z,84.70
2023-02-15T12:19:05.750Z,84.80
2023-02-15T12:21:32.526Z,81.00
2023-02-15T12:23:59.402Z,81.90
2023-02-15T12:26:26.222Z,79.00
2023-02-15T12:28:53.364Z,81.10
2023-02-15T12:31:20.210Z,80.20
2023-02-15T12:33:47.147Z,79.40
2023-02-15T12:36:13.900Z,79.90
2023-02-15T12:38:41.287Z,77.40
2023-02-15T12:41:08.017Z,79.10
2023-02-15T12:43:34.762Z,79.00
2023-02-15T12:46:01.729Z,77.00
2023-02-15T12:48:28.630Z,78.60
2023-02-15T12:50:56.436Z,78.60
2023-02-15T12:53:26.110Z,78.40
2023-02-15T12:55:52.888Z,77.10
2023-02-15T13:00:47.096Z,77.60
2023-02-15T13:03:15.393Z,72.60
2023-02-15T13:05:44.128Z,69.20
2023-02-15T13:08:12.098Z,70.70
2023-02-15T13:10:38.899Z,66.40
2023-02-15T13:13:05.571Z,63.60
2023-02-15T13:15:32.189Z,63.40
2023-02-15T13:17:58.872Z,61.20
2023-02-15T13:20:27.511Z,59.50
2023-02-15T13:22:54.161Z,61.70
2023-02-15T13:25:23.144Z,65.80
2023-02-15T13:27:49.817Z,64.10
2023-02-15T13:30:16.891Z,59.00
2023-02-15T13:32:43.945Z,56.80
2023-02-15T13:35:10.595Z,56.80
2023-02-15T13:37:37.592Z,56.50
2023-02-15T13:40:04.173Z,55.30
2023-02-15T13:42:31.884Z,55.50
2023-02-15T13:44:58.580Z,55.80
2023-02-15T13:47:25.210Z,57.10
2023-02-15T13:49:51.845Z,55.40
2023-02-15T13:52:19.265Z,55.20
2023-02-15T13:54:45.871Z,56.60
2023-02-15T13:57:12.536Z,57.30
2023-02-15T13:59:41.454Z,58.00
2023-02-15T14:02:08.128Z,53.30
2023-02-15T14:04:34.822Z,55.00
2023-02-15T14:07:01.561Z,55.60
2023-02-15T14:09:28.259Z,53.90
2023-02-15T14:11:54.989Z,56.80
2023-02-15T14:14:21.703Z,55.40
2023-02-15T14:17:04.552Z,58.90
2023-02-15T14:19:33.165Z,55.10
2023-02-15T14:21:59.869Z,56.60
2023-02-15T14:24:26.737Z,54.00
2023-02-15T14:26:53.539Z,55.80
2023-02-15T14:29:20.488Z,55.10
2023-02-15T14:32:02.225Z,57.30
2023-02-15T14:34:29.031Z,56.80
2023-02-15T14:36:56.476Z,59.90
2023-02-15T14:39:41.960Z,61.60
2023-02-15T14:42:08.646Z,59.40
2023-02-15T14:44:36.669Z,63.90
2023-02-15T14:47:03.440Z,63.90
2023-02-15T14:49:30.151Z,63.70
2023-02-15T14:51:58.034Z,64.60
2023-02-15T14:54:24.755Z,63.00
2023-02-15T14:56:51.565Z,65.20
2023-02-15T14:59:18.375Z,64.10
2023-02-15T15:01:45.101Z,66.20
2023-02-15T15:04:11.816Z,65.60
2023-02-15T15:06:38.488Z,67.90
2023-02-15T15:09:06.319Z,68.90
2023-02-15T15:11:43.146Z,67.70
2023-02-15T15:14:10.787Z,67.60
2023-02-15T15:16:38.124Z,69.60
2023-02-15T15:19:04.888Z,68.30
2023-02-15T15:21:31.934Z,67.90
2023-02-15T15:23:58.726Z,69.90
2023-02-15T15:26:25.458Z,70.10
2023-02-15T15:28:52.108Z,70.90
2023-02-15T15:31:18.974Z,70.70
2023-02-15T15:33:45.703Z,70.70
2023-02-15T15:36:12.408Z,71.60
2023-02-15T15:41:06.405Z,69.30
2023-02-15T15:43:35.109Z,71.90
2023-02-15T15:46:02.090Z,69.20
2023-02-15T15:48:29.208Z,69.90
2023-02-15T15:50:55.844Z,73.60
2023-02-15T15:53:22.575Z,71.30
2023-02-15T15:55:49.233Z,72.30
2023-02-15T15:58:16.727Z,72.70
2023-02-15T16:00:43.334Z,71.70
2023-02-15T16:03:12.036Z,71.20
2023-02-15T16:05:38.826Z,71.40
2023-02-15T16:08:05.484Z,70.50
2023-02-15T16:10:33.663Z,71.00
2023-02-15T16:13:00.383Z,71.90
2023-02-15T16:15:27.021Z,70.80
2023-02-15T16:17:55.987Z,70.30
2023-02-15T16:20:22.864Z,72.60
2023-02-15T16:22:49.507Z,72.50
2023-02-15T16:25:16.143Z,72.90
2023-02-15T16:27:43.075Z,74.40
2023-02-15T16:30:09.866Z,76.10
2023-02-15T16:32:37.411Z,74.60
2023-02-15T16:35:04.022Z,73.70
2023-02-15T16:37:30.656Z,74.40
2023-02-15T16:39:57.427Z,75.60
2023-02-15T16:42:24.107Z,75.90
2023-02-15T16:44:50.774Z,76.60
2023-02-15T16:47:17.460Z,76.70
2023-02-15T16:49:44.080Z,77.20
2023-02-15T16:52:10.975Z,77.40
2023-02-15T16:54:37.677Z,76.70
2023-02-15T16:57:04.364Z,78.40
2023-02-15T16:59:30.983Z,78.10
2023-02-15T17:01:57.671Z,78.90
2023-02-15T17:04:24.290Z,80.60
2023-02-15T17:06:50.922Z,81.00
2023-02-15T17:09:19.576Z,82.60
2023-02-15T17:11:46.270Z,84.00
2023-02-15T17:14:15.063Z,84.00
2023-02-15T17:16:41.770Z,84.30
2023-02-15T17:19:08.436Z,84.70
2023-02-15T17:21:35.272Z,85.30
2023-02-15T17:24:02.043Z,86.30
2023-02-15T17:26:28.766Z,86.40
2023-02-15T17:28:57.137Z,87.40
2023-02-15T17:31:23.945Z,87.30
2023-02-15T17:33:51.784Z,88.40
2023-02-15T17:36:20.444Z,88.70
2023-02-15T17:38:47.296Z,89.00
2023-02-15T17:41:14.040Z,89.20
2023-02-15T17:43:42.497Z,89.90
2023-02-15T17:46:09.282Z,90.20
2023-02-15T17:48:36.041Z,90.50
2023-02-15T17:51:03.151Z,90.80
2023-02-15T17:53:30.006Z,90.80
2023-02-15T17:55:56.661Z,91.10
2023-02-15T17:58:23.620Z,91.10
2023-02-15T18:01:09.087Z,91.60
2023-02-15T18:03:54.505Z,91.70
2023-02-15T18:06:40.137Z,91.70
2023-02-15T18:09:25.713Z,91.80
2023-02-15T18:11:52.414Z,91.70
2023-02-15T18:14:19.021Z,91.70
2023-02-15T18:16:46.260Z,91.60
2023-02-15T18:19:12.981Z,91.70
2023-02-15T18:21:39.617Z,91.70
2023-02-15T18:24:06.319Z,91.60
2023-02-15T18:26:32.943Z,91.60
2023-02-15T18:28:59.614Z,91.40
2023-02-15T18:31:26.408Z,91.40
2023-02-15T18:33:53.153Z,91.50
2023-02-15T18:36:19.774Z,91.30
2023-02-15T18:38:46.538Z,91.60
2023-02-15T18:41:13.223Z,91.40
2023-02-15T18:43:39.899Z,91.60
2023-02-15T18:46:06.765Z,91.60
2023-02-15T18:48:33.748Z,92.10
2023-02-15T18:51:00.490Z,92.40
2023-02-15T18:53:27.194Z,92.60
2023-02-15T18:55:53.898Z,93.00
2023-02-15T18:58:20.629Z,93.30
2023-02-15T19:00:48.366Z,93.50
2023-02-15T19:03:15.073Z,93.70
2023-02-15T19:05:41.775Z,93.90
2023-02-15T19:08:08.415Z,93.80
2023-02-15T19:10:35.054Z,93.70
2023-02-15T19:13:01.770Z,93.90
2023-02-15T19:15:28.459Z,94.10
2023-02-15T19:17:55.139Z,94.30
2023-02-15T19:20:21.891Z,94.50
2023-02-15T19:22:48.660Z,94.80
2023-02-15T19:25:15.308Z,94.90
2023-02-15T19:27:42.376Z,95.00
2023-02-15T19:30:09.095Z,95.00
2023-02-15T19:32:35.889Z,95.10
2023-02-15T19:35:02.622Z,95.30
2023-02-15T19:37:30.862Z,95.40
2023-02-15T19:39:57.722Z,95.60
2023-02-15T19:42:24.407Z,95.90
2023-02-15T19:44:51.142Z,95.80
2023-02-15T19:47:18.016Z,96.20
2023-02-15T19:49:44.670Z,96.30
2023-02-15T19:52:11.417Z,96.40
2023-02-15T19:54:38.234Z,96.70
2023-02-15T19:57:05.170Z,97.20
2023-02-15T19:59:32.376Z,97.40
2023-02-15T20:01:58.996Z,97.60
2023-02-15T20:04:25.737Z,97.90
2023-02-15T20:06:52.568Z,97.90
2023-02-15T20:09:19.209Z,98.30
2023-02-15T20:11:46.041Z,98.40
2023-02-15T20:14:12.769Z,98.90
2023-02-15T20:16:39.468Z,99.30
2023-02-15T20:19:06.292Z,99.60
2023-02-15T20:21:32.929Z,99.90
2023-02-15T20:23:59.898Z,99.90
2023-02-15T20:26:29.818Z,99.90
2023-02-15T20:28:56.531Z,99.90
2023-02-15T20:31:25.606Z,99.90
2023-02-15T20:33:52.289Z,99.90
2023-02-15T20:36:18.969Z,99.90
2023-02-15T20:38:45.639Z,99.90
2023-02-15T20:41:31.180Z,99.90
2023-02-15T20:43:57.821Z,99.90
2023-02-15T20:46:24.528Z,99.90
2023-02-15T20:48:51.219Z,99.90
2023-02-15T20:51:18.299Z,99.90
2023-02-15T20:53:45.022Z,99.90
2023-02-15T20:56:11.683Z,99.90
2023-02-15T20:58:39.167Z,99.90
2023-02-15T21:01:06.037Z,99.90
2023-02-15T21:03:33.018Z,99.90
2023-02-15T21:05:59.677Z,99.90
2023-02-15T21:08:26.375Z,99.90
2023-02-15T21:10:53.231Z,99.90
2023-02-15T21:13:19.841Z,99.90
2023-02-15T21:15:46.569Z,99.90
2023-02-15T21:18:13.237Z,99.90
2023-02-15T21:20:39.908Z,99.90
2023-02-15T21:23:06.779Z,99.90
2023-02-15T21:25:33.471Z,99.90
2023-02-15T21:28:00.171Z,99.90
2023-02-15T21:30:26.833Z,99.90
2023-02-15T21:32:53.544Z,99.90
2023-02-15T21:35:20.195Z,99.90
2023-02-15T21:37:46.888Z,99.90
2023-02-15T21:40:13.602Z,99.90
2023-02-15T21:42:59.177Z,99.90
2023-02-15T21:45:44.552Z,99.90
2023-02-15T21:48:11.239Z,99.90
2023-02-15T21:50:56.835Z,99.90
2023-02-15T21:53:23.502Z,99.90
2023-02-15T21:55:50.314Z,99.90
2023-02-15T21:58:16.985Z,99.90
2023-02-15T22:00:43.676Z,99.90
2023-02-15T22:03:10.364Z,99.90
2023-02-15T22:05:37.047Z,99.90
2023-02-15T22:08:03.699Z,99.90
2023-02-15T22:10:30.442Z,99.90
2023-02-15T22:12:57.222Z,99.90
2023-02-15T22:15:23.967Z,99.90
2023-02-15T22:17:50.634Z,99.90
2023-02-15T22:20:17.351Z,99.90
2023-02-15T22:22:44.021Z,99.90
2023-02-15T22:25:10.670Z,99.90
2023-02-15T22:27:37.366Z,99.90
2023-02-15T22:30:04.352Z,99.90
2023-02-15T22:32:31.023Z,99.90
2023-02-15T22:34:57.690Z,99.90
2023-02-15T22:37:24.430Z,99.90
2023-02-15T22:39:51.062Z,99.90
2023-02-15T22:42:17.712Z,99.90
2023-02-15T22:44:44.357Z,99.90
2023-02-15T22:47:11.035Z,99.90
2023-02-15T22:49:37.725Z,99.90
2023-02-15T22:52:04.408Z,99.90
2023-02-15T22:54:31.069Z,99.90
2023-02-15T22:56:57.742Z,99.90
2023-02-15T22:59:27.856Z,99.90
2023-02-15T23:01:54.519Z,99.90
2023-02-15T23:04:21.387Z,99.90
2023-02-15T23:06:48.081Z,99.90
2023-02-15T23:09:14.754Z,99.90
2023-02-15T23:11:41.444Z,99.90
2023-02-15T23:14:08.191Z,99.90
2023-02-15T23:16:35.710Z,99.90
2023-02-15T23:19:02.465Z,99.90
2023-02-15T23:21:29.173Z,99.90
2023-02-15T23:23:55.901Z,99.90
2023-02-15T23:26:22.586Z,99.90
2023-02-15T23:28:49.416Z,99.90
2023-02-15T23:31:16.399Z,99.90
2023-02-15T23:33:43.204Z,99.90
2023-02-15T23:36:09.864Z,99.90
2023-02-15T23:38:36.509Z,99.90
2023-02-15T23:41:21.630Z,99.90
2023-02-15T23:43:48.345Z,99.90
2023-02-15T23:46:15.056Z,99.90
2023-02-15T23:48:41.812Z,99.90
2023-02-15T23:51:08.901Z,99.90
2023-02-15T23:53:35.661Z,99.90
2023-02-15T23:56:02.329Z,99.90
2023-02-15T23:58:29.053Z,99.90
